Hlavní strana
METAR-TAF:

METAR-TAF

Letiště :

Treviso, Itálie

zeměpisná šířka: 45-41N, zeměpisná délka: 012-06E, výška: 45 m

Aktuální stav počasí

Zpráva byla vytvořena před 33 minutami, v 03:55 UTC
Severovýchodní vítr 4 kt
Teplota 5°C
Vlhkost vzduchu 93%
Tlak 1018 hPa
Viditelnost: 3000 m
Oblačno až skoro zataženo ve výšce 2500 ft
slabý déšť, kouřmo

METAR: LIPS 180355Z 05004KT 3000 -RA BR BKN025 05/04 Q1018 RMK BKN VIS MIN 3000 WIND THR26 05003KT WIND THR08 03004KT YLO

Čas: 05:28 (04:28 UTC)

Předpověď počasí

Zpráva byla vytvořena před 2 hodinami a 28 minutami, v 02:00 UTC
Předpověď platná od 18 v 03 UTC do 18 v 12 UTC
Východoseverovýchodní vítr 5 kt
Viditelnost: 3000 m
Polojasno ve výšce 3000 ft
Oblačno až skoro zataženo ve výšce 4000 ft
kouřmo
Dočasný
od 18 v 03 UTC do 18 v 07 UTC
Viditelnost: 3000 m
déšť

TAF: LIPS 180200Z 1803/1812 06005KT 3000 BR SCT030 BKN040 TEMPO 1803/1807 3000 RA

Stav a předpovědi počasí z více než 4 000 letišť (zprávy METAR a TAF).

Červené a žluté tečky na mapě představují dostupné meteorologické stanice.

Když kurzor umístíte na tečku, zobrazí se název stanice.

Pak kliknutím zobrazíte stav a předpověď počasí.

Chcete-li změnit mapu, kliknutím na zelené tlačítko se znaménkem +mapu přiblížíte, kliknutím na zelené tlačítko se znaménkem – mapu oddálíte a kliknutím na zelené šipky přejdete na sousední mapy.


METAR-TAF: